Flight Briefing for CPX776

Departure Arrival
Ben Gurion International Airport (LLBG)
Click to view FAA NOTAMS
Li├Ęge Airport (EBLG)
Click to view FAA NOTAMS
Departure Time Arrival Time
N/A N/A
Aircraft Distance
B767-300BDSF 1718nm
Departure METAR Arrival METAR
LLBG 221120Z 30009KT 9999 FEW030 20/13 Q1015 NOSIG EBLG 221120Z 16004KT 110V240 CAVOK 17/00 Q1029 NOSIG
Suggested Route
PURLA2G PURLA L53 KAROL L995 RDS UL609 MES UG18 FSK L608 LONTA L608 DOLEV ERKIR UQ863 GUPIN RIDSU L608 LIRSU


View recent IFR Routes data
Notes



Charts and Procedures

Charts for LLBG
No chart available
Charts for EBLG
No chart available

Windy.com Weather Map